sensor_id;sensor_type;location;lat;lon;timestamp;pressure;altitude;pressure_sealevel;temperature;humidity
76637;BME280;65532;52.124;5.480;2024-03-07T00:00:09;102653.94;;;2.47;100.00
76637;BME280;65532;52.124;5.480;2024-03-07T00:02:48;102652.25;;;2.46;100.00
76637;BME280;65532;52.124;5.480;2024-03-07T00:05:16;102652.66;;;2.42;100.00
76637;BME280;65532;52.124;5.480;2024-03-07T00:07:43;102653.31;;;2.34;100.00
76637;BME280;65532;52.124;5.480;2024-03-07T00:10:10;102648.94;;;2.33;100.00
76637;BME280;65532;52.124;5.480;2024-03-07T00:12:39;102652.16;;;2.27;100.00
76637;BME280;65532;52.124;5.480;2024-03-07T00:15:08;102651.44;;;2.25;100.00
76637;BME280;65532;52.124;5.480;2024-03-07T00:17:35;102643.94;;;2.19;100.00
76637;BME280;65532;52.124;5.480;2024-03-07T00:20:02;102651.25;;;2.17;100.00
76637;BME280;65532;52.124;5.480;2024-03-07T00:22:31;102650.09;;;2.09;100.00
76637;BME280;65532;52.124;5.480;2024-03-07T00:24:57;102645.00;;;2.06;100.00
76637;BME280;65532;52.124;5.480;2024-03-07T00:27:24;102650.28;;;1.97;100.00
76637;BME280;65532;52.124;5.480;2024-03-07T00:29:52;102645.47;;;1.91;100.00
76637;BME280;65532;52.124;5.480;2024-03-07T00:32:20;102652.41;;;1.82;100.00
76637;BME280;65532;52.124;5.480;2024-03-07T00:34:47;102646.63;;;1.77;100.00
76637;BME280;65532;52.124;5.480;2024-03-07T00:37:14;102650.41;;;1.74;100.00
76637;BME280;65532;52.124;5.480;2024-03-07T00:39:41;102650.59;;;1.83;100.00
76637;BME280;65532;52.124;5.480;2024-03-07T00:42:08;102640.97;;;1.91;100.00
76637;BME280;65532;52.124;5.480;2024-03-07T00:44:35;102647.16;;;1.92;100.00
76637;BME280;65532;52.124;5.480;2024-03-07T00:47:02;102647.03;;;1.93;100.00
76637;BME280;65532;52.124;5.480;2024-03-07T00:49:29;102648.00;;;1.92;100.00
76637;BME280;65532;52.124;5.480;2024-03-07T00:51:58;102654.69;;;1.87;100.00
76637;BME280;65532;52.124;5.480;2024-03-07T00:54:25;102652.16;;;1.85;100.00
76637;BME280;65532;52.124;5.480;2024-03-07T00:56:52;102647.53;;;1.87;100.00
76637;BME280;65532;52.124;5.480;2024-03-07T00:59:19;102652.41;;;1.82;100.00
76637;BME280;65532;52.124;5.480;2024-03-07T01:01:46;102654.09;;;1.83;100.00
76637;BME280;65532;52.124;5.480;2024-03-07T01:04:12;102644.28;;;1.84;100.00
76637;BME280;65532;52.124;5.480;2024-03-07T01:06:39;102641.56;;;1.74;100.00
76637;BME280;65532;52.124;5.480;2024-03-07T01:09:07;102648.88;;;1.61;100.00
76637;BME280;65532;52.124;5.480;2024-03-07T01:11:42;102637.28;;;1.50;100.00
76637;BME280;65532;52.124;5.480;2024-03-07T01:14:11;102643.13;;;1.44;100.00
76637;BME280;65532;52.124;5.480;2024-03-07T01:16:37;102632.78;;;1.51;100.00
76637;BME280;65532;52.124;5.480;2024-03-07T01:19:04;102634.94;;;1.57;100.00
76637;BME280;65532;52.124;5.480;2024-03-07T01:21:35;102637.72;;;1.56;100.00
76637;BME280;65532;52.124;5.480;2024-03-07T01:24:05;102636.69;;;1.47;100.00
76637;BME280;65532;52.124;5.480;2024-03-07T01:26:32;102632.81;;;1.40;100.00
76637;BME280;65532;52.124;5.480;2024-03-07T01:29:00;102629.28;;;1.39;100.00
76637;BME280;65532;52.124;5.480;2024-03-07T01:31:26;102638.03;;;1.41;100.00
76637;BME280;65532;52.124;5.480;2024-03-07T01:33:53;102639.34;;;1.47;100.00
76637;BME280;65532;52.124;5.480;2024-03-07T01:36:21;102636.03;;;1.55;100.00
76637;BME280;65532;52.124;5.480;2024-03-07T01:38:48;102629.50;;;1.59;100.00
76637;BME280;65532;52.124;5.480;2024-03-07T01:41:14;102629.50;;;1.59;100.00
76637;BME280;65532;52.124;5.480;2024-03-07T01:43:44;102630.06;;;1.62;100.00
76637;BME280;65532;52.124;5.480;2024-03-07T01:46:10;102632.75;;;1.62;100.00
76637;BME280;65532;52.124;5.480;2024-03-07T01:48:37;102636.25;;;1.63;100.00
76637;BME280;65532;52.124;5.480;2024-03-07T01:51:05;102626.16;;;1.66;100.00
76637;BME280;65532;52.124;5.480;2024-03-07T01:53:32;102627.00;;;1.67;100.00
76637;BME280;65532;52.124;5.480;2024-03-07T01:56:02;102616.72;;;1.62;100.00
76637;BME280;65532;52.124;5.480;2024-03-07T01:58:29;102625.56;;;1.63;100.00
76637;BME280;65532;52.124;5.480;2024-03-07T02:00:58;102621.66;;;1.67;100.00
76637;BME280;65532;52.124;5.480;2024-03-07T02:03:24;102628.97;;;1.65;100.00
76637;BME280;65532;52.124;5.480;2024-03-07T02:05:51;102616.84;;;1.61;100.00
76637;BME280;65532;52.124;5.480;2024-03-07T02:08:18;102620.25;;;1.63;100.00
76637;BME280;65532;52.124;5.480;2024-03-07T02:10:46;102619.13;;;1.65;100.00
76637;BME280;65532;52.124;5.480;2024-03-07T02:13:13;102623.88;;;1.62;100.00
76637;BME280;65532;52.124;5.480;2024-03-07T02:15:39;102622.19;;;1.61;100.00
76637;BME280;65532;52.124;5.480;2024-03-07T02:18:06;102616.00;;;1.60;100.00
76637;BME280;65532;52.124;5.480;2024-03-07T02:20:33;102612.94;;;1.65;100.00
76637;BME280;65532;52.124;5.480;2024-03-07T02:22:59;102615.63;;;1.65;100.00
76637;BME280;65532;52.124;5.480;2024-03-07T02:25:26;102609.69;;;1.61;100.00
76637;BME280;65532;52.124;5.480;2024-03-07T02:27:53;102613.47;;;1.59;100.00
76637;BME280;65532;52.124;5.480;2024-03-07T02:30:20;102614.41;;;1.58;100.00
76637;BME280;65532;52.124;5.480;2024-03-07T02:32:46;102614.41;;;1.58;100.00
76637;BME280;65532;52.124;5.480;2024-03-07T02:35:18;102618.81;;;1.59;100.00
76637;BME280;65532;52.124;5.480;2024-03-07T02:37:45;102613.47;;;1.59;100.00
76637;BME280;65532;52.124;5.480;2024-03-07T02:40:13;102616.25;;;1.57;100.00
76637;BME280;65532;52.124;5.480;2024-03-07T02:42:40;102616.38;;;1.56;100.00
76637;BME280;65532;52.124;5.480;2024-03-07T02:45:07;102608.13;;;1.59;100.00
76637;BME280;65532;52.124;5.480;2024-03-07T02:47:33;102614.41;;;1.58;100.00
76637;BME280;65532;52.124;5.480;2024-03-07T02:50:00;102603.88;;;1.56;100.00
76637;BME280;65532;52.124;5.480;2024-03-07T02:52:26;102608.63;;;1.53;100.00
76637;BME280;65532;52.124;5.480;2024-03-07T02:54:53;102605.50;;;1.47;100.00
76637;BME280;65532;52.124;5.480;2024-03-07T02:57:19;102601.63;;;1.40;100.00
76637;BME280;65532;52.124;5.480;2024-03-07T02:59:46;102597.06;;;1.42;100.00
76637;BME280;65532;52.124;5.480;2024-03-07T03:02:13;102598.59;;;1.45;100.00
76637;BME280;65532;52.124;5.480;2024-03-07T03:04:43;102591.72;;;1.42;100.00
76637;BME280;65532;52.124;5.480;2024-03-07T03:07:09;102594.63;;;1.39;100.00
76637;BME280;65532;52.124;5.480;2024-03-07T03:09:36;102595.31;;;1.41;100.00
76637;BME280;65532;52.124;5.480;2024-03-07T03:12:06;102598.97;;;1.40;100.00
76637;BME280;65532;52.124;5.480;2024-03-07T03:14:33;102584.78;;;1.40;100.00
76637;BME280;65532;52.124;5.480;2024-03-07T03:16:59;102581.88;;;1.43;100.00
76637;BME280;65532;52.124;5.480;2024-03-07T03:19:26;102582.84;;;1.42;100.00
76637;BME280;65532;52.124;5.480;2024-03-07T03:21:52;102586.25;;;1.44;100.00
76637;BME280;65532;52.124;5.480;2024-03-07T03:24:19;102577.41;;;1.43;100.00
76637;BME280;65532;52.124;5.480;2024-03-07T03:26:46;102574.72;;;1.43;100.00
76637;BME280;65532;52.124;5.480;2024-03-07T03:29:13;102571.31;;;1.41;100.00
76637;BME280;65532;52.124;5.480;2024-03-07T03:31:40;102568.78;;;1.40;100.00
76637;BME280;65532;52.124;5.480;2024-03-07T03:34:06;102566.38;;;1.37;100.00
76637;BME280;65532;52.124;5.480;2024-03-07T03:36:36;102568.84;;;1.29;100.00
76637;BME280;65532;52.124;5.480;2024-03-07T03:39:02;102573.34;;;1.28;100.00
76637;BME280;65532;52.124;5.480;2024-03-07T03:41:29;102568.00;;;1.28;100.00
76637;BME280;65532;52.124;5.480;2024-03-07T03:43:56;102562.41;;;1.31;100.00
76637;BME280;65532;52.124;5.480;2024-03-07T03:46:23;102563.50;;;1.29;100.00
76637;BME280;65532;52.124;5.480;2024-03-07T03:48:49;102565.34;;;1.28;100.00
76637;BME280;65532;52.124;5.480;2024-03-07T03:51:17;102571.66;;;1.27;100.00
76637;BME280;65532;52.124;5.480;2024-03-07T03:53:43;102565.47;;;1.27;100.00
76637;BME280;65532;52.124;5.480;2024-03-07T03:56:10;102574.41;;;1.26;100.00
76637;BME280;65532;52.124;5.480;2024-03-07T03:58:41;102577.94;;;1.26;100.00
76637;BME280;65532;52.124;5.480;2024-03-07T04:01:08;102568.50;;;1.22;100.00
76637;BME280;65532;52.124;5.480;2024-03-07T04:03:39;102571.03;;;1.24;100.00
76637;BME280;65532;52.124;5.480;2024-03-07T04:06:06;102566.94;;;1.19;100.00
76637;BME280;65532;52.124;5.480;2024-03-07T04:08:33;102571.28;;;1.20;100.00
76637;BME280;65532;52.124;5.480;2024-03-07T04:11:04;102560.03;;;1.17;100.00
76637;BME280;65532;52.124;5.480;2024-03-07T04:13:31;102563.56;;;1.17;100.00
76637;BME280;65532;52.124;5.480;2024-03-07T04:15:58;102562.69;;;1.17;100.00
76637;BME280;65532;52.124;5.480;2024-03-07T04:18:25;102563.69;;;1.16;100.00
76637;BME280;65532;52.124;5.480;2024-03-07T04:20:53;102560.28;;;1.14;100.00
76637;BME280;65532;52.124;5.480;2024-03-07T04:23:20;102558.84;;;1.10;100.00
76637;BME280;65532;52.124;5.480;2024-03-07T04:25:47;102558.84;;;1.10;100.00
76637;BME280;65532;52.124;5.480;2024-03-07T04:28:13;102556.91;;;1.12;100.00
76637;BME280;65532;52.124;5.480;2024-03-07T04:30:40;102549.00;;;1.10;100.00
76637;BME280;65532;52.124;5.480;2024-03-07T04:33:06;102560.03;;;1.17;100.00
76637;BME280;65532;52.124;5.480;2024-03-07T04:35:33;102563.69;;;1.16;100.00
76637;BME280;65532;52.124;5.480;2024-03-07T04:38:00;102556.97;;;1.22;100.00
76637;BME280;65532;52.124;5.480;2024-03-07T04:40:26;102555.66;;;1.27;100.00
76637;BME280;65532;52.124;5.480;2024-03-07T04:42:53;102558.75;;;1.32;100.00
76637;BME280;65532;52.124;5.480;2024-03-07T04:45:19;102555.38;;;1.30;100.00
76637;BME280;65532;52.124;5.480;2024-03-07T04:47:47;102559.75;;;1.31;100.00
76637;BME280;65532;52.124;5.480;2024-03-07T04:50:15;102556.09;;;1.32;100.00
76637;BME280;65532;52.124;5.480;2024-03-07T04:52:45;102551.75;;;1.31;100.00
76637;BME280;65532;52.124;5.480;2024-03-07T04:55:13;102554.53;;;1.30;100.00
76637;BME280;65532;52.124;5.480;2024-03-07T04:57:40;102555.75;;;1.26;100.00
76637;BME280;65532;52.124;5.480;2024-03-07T05:00:09;102560.50;;;1.22;100.00
76637;BME280;65532;52.124;5.480;2024-03-07T05:02:45;102551.78;;;1.20;100.00
76637;BME280;65532;52.124;5.480;2024-03-07T05:05:13;102555.88;;;1.24;100.00
76637;BME280;65532;52.124;5.480;2024-03-07T05:07:40;102561.22;;;1.24;100.00
76637;BME280;65532;52.124;5.480;2024-03-07T05:10:08;102552.00;;;1.28;100.00
76637;BME280;65532;52.124;5.480;2024-03-07T05:12:35;102550.31;;;1.27;100.00
76637;BME280;65532;52.124;5.480;2024-03-07T05:15:04;102552.22;;;1.25;100.00
76637;BME280;65532;52.124;5.480;2024-03-07T05:17:31;102552.72;;;1.30;100.00
76637;BME280;65532;52.124;5.480;2024-03-07T05:20:01;102550.63;;;1.34;100.00
76637;BME280;65532;52.124;5.480;2024-03-07T05:22:27;102554.13;;;1.34;100.00
76637;BME280;65532;52.124;5.480;2024-03-07T05:24:56;102558.38;;;1.37;100.00
76637;BME280;65532;52.124;5.480;2024-03-07T05:27:24;102557.97;;;1.41;100.00
76637;BME280;65532;52.124;5.480;2024-03-07T05:29:51;102558.59;;;1.45;100.00
76637;BME280;65532;52.124;5.480;2024-03-07T05:32:22;102565.75;;;1.44;100.00
76637;BME280;65532;52.124;5.480;2024-03-07T05:34:49;102564.16;;;1.42;100.00
76637;BME280;65532;52.124;5.480;2024-03-07T05:37:16;102561.25;;;1.45;100.00
76637;BME280;65532;52.124;5.480;2024-03-07T05:39:42;102555.78;;;1.46;100.00
76637;BME280;65532;52.124;5.480;2024-03-07T05:42:09;102559.69;;;1.42;100.00
76637;BME280;65532;52.124;5.480;2024-03-07T05:44:46;102554.94;;;1.46;100.00
76637;BME280;65532;52.124;5.480;2024-03-07T05:47:12;102561.84;;;1.48;100.00
76637;BME280;65532;52.124;5.480;2024-03-07T05:49:43;102558.19;;;1.49;100.00
76637;BME280;65532;52.124;5.480;2024-03-07T05:52:10;102563.41;;;1.51;100.00
76637;BME280;65532;52.124;5.480;2024-03-07T05:54:36;102557.47;;;1.47;100.00
76637;BME280;65532;52.124;5.480;2024-03-07T05:57:03;102558.19;;;1.49;100.00
76637;BME280;65532;52.124;5.480;2024-03-07T05:59:32;102554.69;;;1.49;100.00
76637;BME280;65532;52.124;5.480;2024-03-07T06:01:59;102556.63;;;1.47;100.00
76637;BME280;65532;52.124;5.480;2024-03-07T06:04:25;102564.78;;;1.45;100.00
76637;BME280;65532;52.124;5.480;2024-03-07T06:06:52;102568.41;;;1.44;100.00
76637;BME280;65532;52.124;5.480;2024-03-07T06:09:19;102565.13;;;1.41;100.00
76637;BME280;65532;52.124;5.480;2024-03-07T06:11:49;102568.47;;;1.33;100.00
76637;BME280;65532;52.124;5.480;2024-03-07T06:14:16;102564.59;;;1.26;100.00
76637;BME280;65532;52.124;5.480;2024-03-07T06:16:43;102569.34;;;1.23;100.00
76637;BME280;65532;52.124;5.480;2024-03-07T06:19:10;102566.53;;;1.24;100.00
76637;BME280;65532;52.124;5.480;2024-03-07T06:21:39;102561.47;;;1.21;100.00
76637;BME280;65532;52.124;5.480;2024-03-07T06:24:06;102566.94;;;1.19;100.00
76637;BME280;65532;52.124;5.480;2024-03-07T06:26:35;102570.31;;;1.22;100.00
76637;BME280;65532;52.124;5.480;2024-03-07T06:29:12;102572.41;;;1.18;100.00
76637;BME280;65532;52.124;5.480;2024-03-07T06:31:39;102566.22;;;1.17;100.00
76637;BME280;65532;52.124;5.480;2024-03-07T06:34:07;102574.09;;;1.19;100.00
76637;BME280;65532;52.124;5.480;2024-03-07T06:36:35;102570.91;;;1.25;100.00
76637;BME280;65532;52.124;5.480;2024-03-07T06:39:02;102572.59;;;1.26;100.00
76637;BME280;65532;52.124;5.480;2024-03-07T06:41:33;102572.50;;;1.28;100.00
76637;BME280;65532;52.124;5.480;2024-03-07T06:44:00;102571.38;;;1.30;100.00
76637;BME280;65532;52.124;5.480;2024-03-07T06:46:26;102572.09;;;1.32;100.00
76637;BME280;65532;52.124;5.480;2024-03-07T06:48:53;102574.50;;;1.35;100.00
76637;BME280;65532;52.124;5.480;2024-03-07T06:51:20;102573.41;;;1.38;100.00
76637;BME280;65532;52.124;5.480;2024-03-07T06:53:47;102563.31;;;1.41;100.00
76637;BME280;65532;52.124;5.480;2024-03-07T06:56:14;102565.63;;;1.46;100.00
76637;BME280;65532;52.124;5.480;2024-03-07T06:58:41;102569.56;;;1.52;100.00
76637;BME280;65532;52.124;5.480;2024-03-07T07:01:09;102569.31;;;1.55;100.00
76637;BME280;65532;52.124;5.480;2024-03-07T07:03:38;102573.44;;;1.59;100.00
76637;BME280;65532;52.124;5.480;2024-03-07T07:06:05;102561.78;;;1.60;100.00
76637;BME280;65532;52.124;5.480;2024-03-07T07:08:33;102562.09;;;1.66;100.00
76637;BME280;65532;52.124;5.480;2024-03-07T07:10:59;102556.34;;;1.71;100.00
76637;BME280;65532;52.124;5.480;2024-03-07T07:13:26;102564.97;;;1.74;100.00
76637;BME280;65532;52.124;5.480;2024-03-07T07:15:52;102566.25;;;1.80;100.00
76637;BME280;65532;52.124;5.480;2024-03-07T07:18:19;102565.72;;;1.86;100.00
76637;BME280;65532;52.124;5.480;2024-03-07T07:20:48;102561.56;;;1.93;100.00
76637;BME280;65532;52.124;5.480;2024-03-07T07:23:15;102559.47;;;1.97;100.00
76637;BME280;65532;52.124;5.480;2024-03-07T07:25:42;102562.31;;;2.05;100.00
76637;BME280;65532;52.124;5.480;2024-03-07T07:28:08;102559.91;;;2.73;100.00
76637;BME280;65532;52.124;5.480;2024-03-07T07:30:36;102556.69;;;3.85;100.00
76637;BME280;65532;52.124;5.480;2024-03-07T07:33:03;102556.91;;;4.66;100.00
76637;BME280;65532;52.124;5.480;2024-03-07T07:35:30;102551.47;;;5.21;100.00
76637;BME280;65532;52.124;5.480;2024-03-07T07:37:57;102549.88;;;5.71;100.00
76637;BME280;65532;52.124;5.480;2024-03-07T07:40:24;102545.91;;;6.02;100.00
76637;BME280;65532;52.124;5.480;2024-03-07T07:42:53;102538.19;;;6.33;100.00
76637;BME280;65532;52.124;5.480;2024-03-07T07:45:22;102541.28;;;6.54;100.00
76637;BME280;65532;52.124;5.480;2024-03-07T07:47:52;102542.50;;;6.68;100.00
76637;BME280;65532;52.124;5.480;2024-03-07T07:50:21;102539.69;;;6.94;100.00
76637;BME280;65532;52.124;5.480;2024-03-07T07:52:56;102542.78;;;7.15;100.00
76637;BME280;65532;52.124;5.480;2024-03-07T07:55:25;102546.66;;;7.29;100.00
76637;BME280;65532;52.124;5.480;2024-03-07T07:58:00;102543.13;;;7.28;100.00
76637;BME280;65532;52.124;5.480;2024-03-07T08:00:30;102544.47;;;7.57;100.00
76637;BME280;65532;52.124;5.480;2024-03-07T08:03:00;102538.75;;;7.60;100.00
76637;BME280;65532;52.124;5.480;2024-03-07T08:05:32;102548.34;;;7.62;100.00
76637;BME280;65532;52.124;5.480;2024-03-07T08:08:01;102544.78;;;7.70;99.31
76637;BME280;65532;52.124;5.480;2024-03-07T08:10:34;102542.63;;;7.65;97.76
76637;BME280;65532;52.124;5.480;2024-03-07T08:13:02;102545.84;;;7.61;96.64
76637;BME280;65532;52.124;5.480;2024-03-07T08:15:30;102553.56;;;7.56;97.70
76637;BME280;65532;52.124;5.480;2024-03-07T08:17:57;102551.66;;;7.97;96.56
76637;BME280;65532;52.124;5.480;2024-03-07T08:20:26;102556.09;;;7.90;96.11
76637;BME280;65532;52.124;5.480;2024-03-07T08:22:54;102550.47;;;7.99;95.48
76637;BME280;65532;52.124;5.480;2024-03-07T08:25:26;102556.97;;;8.29;95.07
76637;BME280;65532;52.124;5.480;2024-03-07T08:27:54;102560.88;;;8.19;93.77
76637;BME280;65532;52.124;5.480;2024-03-07T08:30:22;102558.03;;;8.36;92.10
76637;BME280;65532;52.124;5.480;2024-03-07T08:32:51;102561.03;;;8.42;91.16
76637;BME280;65532;52.124;5.480;2024-03-07T08:35:19;102544.84;;;8.25;91.94
76637;BME280;65532;52.124;5.480;2024-03-07T08:37:46;102550.09;;;8.27;92.28
76637;BME280;65532;52.124;5.480;2024-03-07T08:40:23;102550.75;;;8.29;90.74
76637;BME280;65532;52.124;5.480;2024-03-07T08:42:55;102543.44;;;7.82;88.75
76637;BME280;65532;52.124;5.480;2024-03-07T08:45:22;102547.28;;;7.06;91.13
76637;BME280;65532;52.124;5.480;2024-03-07T08:47:50;102553.59;;;6.65;94.70
76637;BME280;65532;52.124;5.480;2024-03-07T08:50:18;102542.56;;;6.34;96.80
76637;BME280;65532;52.124;5.480;2024-03-07T08:52:45;102547.13;;;6.15;98.58
76637;BME280;65532;52.124;5.480;2024-03-07T08:55:13;102539.06;;;6.15;100.00
76637;BME280;65532;52.124;5.480;2024-03-07T08:57:41;102540.38;;;6.03;100.00
76637;BME280;65532;52.124;5.480;2024-03-07T09:00:08;102525.94;;;6.12;100.00
76637;BME280;65532;52.124;5.480;2024-03-07T09:02:38;102529.38;;;6.22;100.00
76637;BME280;65532;52.124;5.480;2024-03-07T09:05:05;102528.41;;;6.32;99.64
76637;BME280;65532;52.124;5.480;2024-03-07T09:07:32;102527.78;;;6.46;100.00
76637;BME280;65532;52.124;5.480;2024-03-07T09:09:59;102526.09;;;6.45;99.24
76637;BME280;65532;52.124;5.480;2024-03-07T09:12:25;102523.09;;;6.48;100.00
76637;BME280;65532;52.124;5.480;2024-03-07T09:14:52;102528.38;;;6.66;98.83
76637;BME280;65532;52.124;5.480;2024-03-07T09:17:20;102521.53;;;6.79;98.70
76637;BME280;65532;52.124;5.480;2024-03-07T09:19:47;102526.56;;;6.82;97.57
76637;BME280;65532;52.124;5.480;2024-03-07T09:22:13;102519.19;;;7.01;98.07
76637;BME280;65532;52.124;5.480;2024-03-07T09:24:39;102522.22;;;7.06;97.64
76637;BME280;65532;52.124;5.480;2024-03-07T09:27:06;102511.47;;;7.14;96.65
76637;BME280;65532;52.124;5.480;2024-03-07T09:29:33;102512.28;;;6.98;94.99
76637;BME280;65532;52.124;5.480;2024-03-07T09:31:59;102513.78;;;6.93;94.20
76637;BME280;65532;52.124;5.480;2024-03-07T09:34:26;102522.22;;;6.98;95.05
76637;BME280;65532;52.124;5.480;2024-03-07T09:36:52;102516.84;;;7.06;94.40
76637;BME280;65532;52.124;5.480;2024-03-07T09:39:19;102508.41;;;6.93;94.36
76637;BME280;65532;52.124;5.480;2024-03-07T09:41:45;102512.44;;;6.88;93.16
76637;BME280;65532;52.124;5.480;2024-03-07T09:44:14;102517.84;;;7.05;93.21
76637;BME280;65532;52.124;5.480;2024-03-07T09:46:45;102507.59;;;7.25;93.43
76637;BME280;65532;52.124;5.480;2024-03-07T09:49:13;102510.81;;;7.12;91.95
76637;BME280;65532;52.124;5.480;2024-03-07T09:51:40;102502.03;;;7.10;93.11
76637;BME280;65532;52.124;5.480;2024-03-07T09:54:06;102503.41;;;7.30;91.75
76637;BME280;65532;52.124;5.480;2024-03-07T09:56:34;102499.34;;;7.42;92.53
76637;BME280;65532;52.124;5.480;2024-03-07T09:59:04;102503.03;;;7.41;90.76
76637;BME280;65532;52.124;5.480;2024-03-07T10:01:35;102500.00;;;7.36;88.98
76637;BME280;65532;52.124;5.480;2024-03-07T10:04:05;102494.63;;;7.53;89.56
76637;BME280;65532;52.124;5.480;2024-03-07T10:06:38;102498.66;;;7.57;87.65
76637;BME280;65532;52.124;5.480;2024-03-07T10:09:06;102499.28;;;7.91;88.06
76637;BME280;65532;52.124;5.480;2024-03-07T10:11:33;102493.25;;;8.20;87.20
76637;BME280;65532;52.124;5.480;2024-03-07T10:14:01;102492.41;;;8.20;85.59
76637;BME280;65532;52.124;5.480;2024-03-07T10:16:29;102492.72;;;8.41;86.90
76637;BME280;65532;52.124;5.480;2024-03-07T10:18:55;102496.94;;;8.66;85.20
76637;BME280;65532;52.124;5.480;2024-03-07T10:21:22;102487.91;;;8.82;82.68
76637;BME280;65532;52.124;5.480;2024-03-07T10:23:50;102484.78;;;8.70;81.05
76637;BME280;65532;52.124;5.480;2024-03-07T10:26:20;102468.59;;;8.70;80.61
76637;BME280;65532;52.124;5.480;2024-03-07T10:28:48;102477.44;;;8.87;78.55
76637;BME280;65532;52.124;5.480;2024-03-07T10:31:28;102472.06;;;8.79;78.11
76637;BME280;65532;52.124;5.480;2024-03-07T10:33:59;102474.00;;;8.70;77.38
76637;BME280;65532;52.124;5.480;2024-03-07T10:36:25;102476.25;;;8.59;76.38
76637;BME280;65532;52.124;5.480;2024-03-07T10:38:52;102476.19;;;8.36;76.91
76637;BME280;65532;52.124;5.480;2024-03-07T10:41:25;102464.63;;;8.58;78.98
76637;BME280;65532;52.124;5.480;2024-03-07T10:43:57;102455.97;;;8.63;76.60
76637;BME280;65532;52.124;5.480;2024-03-07T10:46:25;102468.03;;;8.52;77.77
76637;BME280;65532;52.124;5.480;2024-03-07T10:48:55;102470.88;;;8.51;77.61
76637;BME280;65532;52.124;5.480;2024-03-07T10:51:29;102465.94;;;8.62;77.51
76637;BME280;65532;52.124;5.480;2024-03-07T10:54:20;102464.56;;;8.35;78.43
76637;BME280;65532;52.124;5.480;2024-03-07T10:59:38;102459.94;;;8.75;79.66
76637;BME280;65532;52.124;5.480;2024-03-07T11:02:24;102457.91;;;8.54;78.66
76637;BME280;65532;52.124;5.480;2024-03-07T11:04:54;102449.53;;;8.33;78.53
76637;BME280;65532;52.124;5.480;2024-03-07T11:07:23;102462.59;;;8.21;80.66
76637;BME280;65532;52.124;5.480;2024-03-07T11:09:51;102451.16;;;8.11;78.79
76637;BME280;65532;52.124;5.480;2024-03-07T11:12:23;102449.19;;;8.36;81.02
76637;BME280;65532;52.124;5.480;2024-03-07T11:14:51;102447.66;;;8.73;77.88
76637;BME280;65532;52.124;5.480;2024-03-07T11:17:20;102437.13;;;8.55;76.21
76637;BME280;65532;52.124;5.480;2024-03-07T11:19:48;102432.34;;;8.65;77.92
76637;BME280;65532;52.124;5.480;2024-03-07T11:22:28;102431.84;;;8.61;75.81
76637;BME280;65532;52.124;5.480;2024-03-07T11:25:00;102433.59;;;8.54;75.79
76637;BME280;65532;52.124;5.480;2024-03-07T11:27:28;102435.09;;;8.80;77.84
76637;BME280;65532;52.124;5.480;2024-03-07T11:29:54;102441.03;;;8.98;77.47
76637;BME280;65532;52.124;5.480;2024-03-07T11:32:23;102432.94;;;8.52;78.38
76637;BME280;65532;52.124;5.480;2024-03-07T11:34:53;102428.50;;;8.59;79.32
76637;BME280;65532;52.124;5.480;2024-03-07T11:37:37;102425.19;;;8.95;80.74
76637;BME280;65532;52.124;5.480;2024-03-07T11:40:08;102424.66;;;8.99;77.50
76637;BME280;65532;52.124;5.480;2024-03-07T11:42:34;102420.94;;;9.00;75.83
76637;BME280;65532;52.124;5.480;2024-03-07T11:45:03;102423.31;;;9.18;77.26
76637;BME280;65532;52.124;5.480;2024-03-07T11:47:38;102421.88;;;9.08;74.98
76637;BME280;65532;52.124;5.480;2024-03-07T11:50:06;102412.78;;;8.86;76.01
76637;BME280;65532;52.124;5.480;2024-03-07T11:52:38;102424.69;;;9.14;76.65
76637;BME280;65532;52.124;5.480;2024-03-07T11:55:10;102416.56;;;9.14;75.87
76637;BME280;65532;52.124;5.480;2024-03-07T11:57:38;102412.72;;;9.32;75.47
76637;BME280;65532;52.124;5.480;2024-03-07T12:00:05;102402.75;;;9.32;76.19
76637;BME280;65532;52.124;5.480;2024-03-07T12:02:40;102401.34;;;9.21;75.28
76637;BME280;65532;52.124;5.480;2024-03-07T12:05:07;102398.41;;;9.08;76.09
76637;BME280;65532;52.124;5.480;2024-03-07T12:07:34;102393.19;;;9.07;76.25
76637;BME280;65532;52.124;5.480;2024-03-07T12:10:02;102389.06;;;9.48;77.46
76637;BME280;65532;52.124;5.480;2024-03-07T12:12:32;102389.41;;;9.60;74.04
76637;BME280;65532;52.124;5.480;2024-03-07T12:14:59;102381.91;;;9.03;72.15
76637;BME280;65532;52.124;5.480;2024-03-07T12:17:28;102385.66;;;9.02;73.64
76637;BME280;65532;52.124;5.480;2024-03-07T12:19:56;102375.78;;;9.09;73.65
76637;BME280;65532;52.124;5.480;2024-03-07T12:22:29;102374.91;;;8.94;74.24
76637;BME280;65532;52.124;5.480;2024-03-07T12:25:03;102365.25;;;9.14;75.08
76637;BME280;65532;52.124;5.480;2024-03-07T12:27:34;102363.88;;;9.18;75.27
76637;BME280;65532;52.124;5.480;2024-03-07T12:30:14;102351.03;;;9.50;75.19
76637;BME280;65532;52.124;5.480;2024-03-07T12:32:49;102347.94;;;9.38;73.50
76637;BME280;65532;52.124;5.480;2024-03-07T12:35:16;102336.38;;;9.29;73.98
76637;BME280;65532;52.124;5.480;2024-03-07T12:37:43;102328.47;;;9.43;74.98
76637;BME280;65532;52.124;5.480;2024-03-07T12:40:12;102327.53;;;9.65;76.67
76637;BME280;65532;52.124;5.480;2024-03-07T12:42:52;102318.38;;;9.66;74.95
76637;BME280;65532;52.124;5.480;2024-03-07T12:45:21;102318.78;;;9.48;74.89
76637;BME280;65532;52.124;5.480;2024-03-07T12:47:48;102317.25;;;9.46;74.76
76637;BME280;65532;52.124;5.480;2024-03-07T12:50:20;102308.41;;;9.52;76.62
76637;BME280;65532;52.124;5.480;2024-03-07T12:52:49;102311.78;;;9.54;74.14
76637;BME280;65532;52.124;5.480;2024-03-07T12:55:17;102312.16;;;9.36;75.04
76637;BME280;65532;52.124;5.480;2024-03-07T12:57:49;102307.47;;;9.30;74.87
76637;BME280;65532;52.124;5.480;2024-03-07T13:00:17;102308.31;;;9.30;75.89